PWSweather.com
Personal Weather Stations
Station Observations
ITROMSHA6
HarstadNO 9407

HarstadNO 9407

Lat: 68.7814767, Lon: 16.5297091

Elevation: 145

Station Type: Davis Vantage Pro2

High Low Average
Temperature 46.4°F8.0°C 41.7°F5.4°C 43.2°F6.2°C
Dew Point 43.7°F6.5°C 32.7°F0.4°C 37.3°F2.9°C
Winds 14.0 mph 22.5 kmh Calm Calm 5.0 mph ESE8.0 kmh ESE
Wind Gusts 18.0 mph29.0 kmh -- 2.0 mph3.2 kmh
Humidity 92% 68% 80%
Pressure 29.53 in1000.0 mb 29.21 in989.2 mb -
Precipitation 0.06 in1.5 mm - -
Hour Temp Dew Point Humidity Winds Wind Gusts Pressure Precip Precip Rate Daily Precip Total
12:00 AM 46.4°F8.0°C 43.7°F6.5°C 90% 1.0 mph WSW1.6 kmh WSW -- 29.53 in1000.0 mb 0.00 in0.0 mm 0.00 in0.0 mm 0.00 in0.0 mm
12:05 AM 46.4°F8.0°C 43.7°F6.5°C 90% 3.0 mph WSW4.8 kmh WSW -- 29.53 in1000.0 mb 0.00 in0.0 mm 0.00 in0.0 mm 0.00 in0.0 mm
12:10 AM 46.3°F7.9°C 43.5°F6.4°C 90% Calm Calm -- 29.52 in999.7 mb 0.00 in0.0 mm 0.00 in0.0 mm 0.00 in0.0 mm
12:15 AM 46.3°F7.9°C 43.5°F6.4°C 90% 2.0 mph W3.2 kmh W -- 29.52 in999.7 mb 0.00 in0.0 mm 0.00 in0.0 mm 0.00 in0.0 mm
12:20 AM 46.2°F7.9°C 43.5°F6.4°C 90% 4.0 mph W6.4 kmh W 7.0 mph11.3 kmh 29.52 in999.7 mb 0.00 in0.0 mm 0.00 in0.0 mm 0.00 in0.0 mm
12:25 AM 46.2°F7.9°C 43.5°F6.4°C 90% 4.0 mph SW6.4 kmh SW -- 29.52 in999.7 mb 0.00 in0.0 mm 0.00 in0.0 mm 0.00 in0.0 mm
12:30 AM 46.2°F7.9°C 43.5°F6.4°C 90% 4.0 mph WSW6.4 kmh WSW -- 29.52 in999.7 mb 0.00 in0.0 mm 0.00 in0.0 mm 0.00 in0.0 mm
12:35 AM 46.2°F7.9°C 43.5°F6.4°C 90% 2.0 mph WSW3.2 kmh WSW -- 29.52 in999.7 mb 0.00 in0.0 mm 0.00 in0.0 mm 0.00 in0.0 mm
12:40 AM 46.2°F7.9°C 43.5°F6.4°C 90% 2.0 mph SW3.2 kmh SW -- 29.52 in999.7 mb 0.00 in0.0 mm 0.00 in0.0 mm 0.00 in0.0 mm
12:45 AM 46.2°F7.9°C 43.2°F6.2°C 89% 2.0 mph WNW3.2 kmh WNW 7.0 mph11.3 kmh 29.52 in999.7 mb 0.00 in0.0 mm 0.00 in0.0 mm 0.00 in0.0 mm
12:50 AM 46.3°F7.9°C 43.2°F6.2°C 89% Calm Calm -- 29.52 in999.7 mb 0.00 in0.0 mm 0.00 in0.0 mm 0.00 in0.0 mm
12:55 AM 46.3°F7.9°C 43.2°F6.2°C 89% 2.0 mph WNW3.2 kmh WNW -- 29.51 in999.3 mb 0.00 in0.0 mm 0.00 in0.0 mm 0.00 in0.0 mm
01:00 AM 46.3°F7.9°C 43.2°F6.2°C 89% Calm Calm -- 29.51 in999.3 mb 0.00 in0.0 mm 0.00 in0.0 mm 0.00 in0.0 mm
01:05 AM 46.4°F8.0°C 43.3°F6.3°C 89% 1.0 mph WNW1.6 kmh WNW -- 29.51 in999.3 mb 0.00 in0.0 mm 0.00 in0.0 mm 0.00 in0.0 mm
01:10 AM 46.4°F8.0°C 43.3°F6.3°C 89% 4.0 mph WNW6.4 kmh WNW 5.0 mph8.0 kmh 29.51 in999.3 mb 0.00 in0.0 mm 0.00 in0.0 mm 0.00 in0.0 mm
01:15 AM 46.3°F7.9°C 42.8°F6.0°C 88% 1.0 mph SW1.6 kmh SW -- 29.51 in999.3 mb 0.00 in0.0 mm 0.00 in0.0 mm 0.00 in0.0 mm
01:20 AM 46.1°F7.8°C 42.6°F5.9°C 88% Calm Calm -- 29.51 in999.3 mb 0.00 in0.0 mm 0.00 in0.0 mm 0.00 in0.0 mm
01:25 AM 45.9°F7.7°C 42.4°F5.8°C 88% 1.0 mph NNE1.6 kmh NNE -- 29.51 in999.3 mb 0.00 in0.0 mm 0.00 in0.0 mm 0.00 in0.0 mm
01:30 AM 45.6°F7.6°C 42.6°F5.9°C 89% Calm Calm -- 29.51 in999.3 mb 0.00 in0.0 mm 0.00 in0.0 mm 0.00 in0.0 mm
01:35 AM 45.5°F7.5°C 42.4°F5.8°C 89% Calm Calm 4.0 mph6.4 kmh 29.50 in999.0 mb 0.00 in0.0 mm 0.00 in0.0 mm 0.00 in0.0 mm
01:40 AM 45.3°F7.4°C 42.3°F5.7°C 89% Calm Calm -- 29.50 in999.0 mb 0.00 in0.0 mm 0.00 in0.0 mm 0.00 in0.0 mm
01:45 AM 45.2°F7.3°C 42.1°F5.6°C 89% Calm Calm -- 29.50 in999.0 mb 0.00 in0.0 mm 0.00 in0.0 mm 0.00 in0.0 mm
01:50 AM 44.9°F7.2°C 42.3°F5.7°C 90% Calm Calm -- 29.50 in999.0 mb 0.01 in0.3 mm 0.12 in3.0 mm 0.01 in0.3 mm
01:55 AM 44.6°F7.0°C 41.9°F5.5°C 90% 2.0 mph SW3.2 kmh SW -- 29.50 in999.0 mb 0.01 in0.3 mm 0.00 in0.0 mm 0.01 in0.3 mm
02:00 AM 44.5°F6.9°C 41.4°F5.2°C 89% 1.0 mph WSW1.6 kmh WSW 6.0 mph9.7 kmh 29.50 in999.0 mb 0.01 in0.3 mm 0.00 in0.0 mm 0.01 in0.3 mm
02:05 AM 44.3°F6.8°C 41.2°F5.1°C 89% 1.0 mph W1.6 kmh W -- 29.50 in999.0 mb 0.01 in0.3 mm 0.00 in0.0 mm 0.01 in0.3 mm
02:10 AM 44.2°F6.8°C 41.5°F5.3°C 90% 1.0 mph W1.6 kmh W -- 29.50 in999.0 mb 0.02 in0.5 mm 0.12 in3.0 mm 0.02 in0.5 mm
02:15 AM 44.1°F6.7°C 41.0°F5.0°C 89% 1.0 mph W1.6 kmh W -- 29.50 in999.0 mb 0.02 in0.5 mm 0.00 in0.0 mm 0.02 in0.5 mm
02:20 AM 44.1°F6.7°C 41.0°F5.0°C 89% Calm Calm -- 29.50 in999.0 mb 0.02 in0.5 mm 0.00 in0.0 mm 0.02 in0.5 mm
02:25 AM 44.0°F6.7°C 41.0°F5.0°C 89% Calm Calm 5.0 mph8.0 kmh 29.50 in999.0 mb 0.02 in0.5 mm 0.00 in0.0 mm 0.02 in0.5 mm
02:30 AM 43.9°F6.6°C 40.8°F4.9°C 89% 1.0 mph WNW1.6 kmh WNW -- 29.49 in998.6 mb 0.02 in0.5 mm 0.00 in0.0 mm 0.02 in0.5 mm
02:35 AM 43.8°F6.6°C 40.8°F4.9°C 89% 3.0 mph WNW4.8 kmh WNW -- 29.49 in998.6 mb 0.02 in0.5 mm 0.00 in0.0 mm 0.02 in0.5 mm
02:40 AM 43.7°F6.5°C 40.6°F4.8°C 89% Calm Calm -- 29.49 in998.6 mb 0.03 in0.8 mm 0.12 in3.0 mm 0.03 in0.8 mm
02:45 AM 43.6°F6.4°C 40.5°F4.7°C 89% 1.0 mph SW1.6 kmh SW -- 29.49 in998.6 mb 0.03 in0.8 mm 0.00 in0.0 mm 0.03 in0.8 mm
02:50 AM 43.4°F6.3°C 40.3°F4.6°C 89% Calm Calm 8.0 mph12.9 kmh 29.49 in998.6 mb 0.02 in0.5 mm 0.00 in0.0 mm 0.03 in0.8 mm
02:55 AM 43.3°F6.3°C 40.3°F4.6°C 89% 3.0 mph WSW4.8 kmh WSW -- 29.49 in998.6 mb 0.02 in0.5 mm 0.00 in0.0 mm 0.03 in0.8 mm
03:00 AM 43.2°F6.2°C 40.1°F4.5°C 89% 1.0 mph WSW1.6 kmh WSW -- 29.49 in998.6 mb 0.02 in0.5 mm 0.00 in0.0 mm 0.03 in0.8 mm
03:05 AM 43.1°F6.2°C 40.1°F4.5°C 89% Calm Calm -- 29.49 in998.6 mb 0.03 in0.8 mm 0.12 in3.0 mm 0.04 in1.0 mm
03:10 AM 42.9°F6.1°C 40.3°F4.6°C 90% 2.0 mph W3.2 kmh W -- 29.48 in998.3 mb 0.02 in0.5 mm 0.00 in0.0 mm 0.04 in1.0 mm
03:15 AM 42.8°F6.0°C 40.1°F4.5°C 90% 4.0 mph SW6.4 kmh SW 7.0 mph11.3 kmh 29.48 in998.3 mb 0.02 in0.5 mm 0.00 in0.0 mm 0.04 in1.0 mm
03:20 AM 42.7°F5.9°C 39.9°F4.4°C 90% 4.0 mph WSW6.4 kmh WSW -- 29.48 in998.3 mb 0.03 in0.8 mm 0.12 in3.0 mm 0.05 in1.3 mm
03:25 AM 42.6°F5.9°C 39.9°F4.4°C 90% 1.0 mph SW1.6 kmh SW -- 29.48 in998.3 mb 0.03 in0.8 mm 0.00 in0.0 mm 0.05 in1.3 mm
03:30 AM 42.6°F5.9°C 39.9°F4.4°C 90% 2.0 mph W3.2 kmh W -- 29.48 in998.3 mb 0.03 in0.8 mm 0.00 in0.0 mm 0.06 in1.5 mm
03:35 AM 42.8°F6.0°C 40.1°F4.5°C 90% 2.0 mph W3.2 kmh W -- 29.48 in998.3 mb 0.03 in0.8 mm 0.00 in0.0 mm 0.06 in1.5 mm
03:40 AM 42.9°F6.1°C 40.3°F4.6°C 90% 2.0 mph W3.2 kmh W 5.0 mph8.0 kmh 29.47 in998.0 mb 0.03 in0.8 mm 0.00 in0.0 mm 0.06 in1.5 mm
03:45 AM 43.0°F6.1°C 39.9°F4.4°C 89% 2.0 mph WNW3.2 kmh WNW -- 29.47 in998.0 mb 0.03 in0.8 mm 0.00 in0.0 mm 0.06 in1.5 mm
03:50 AM 42.9°F6.1°C 39.9°F4.4°C 89% 2.0 mph NW3.2 kmh NW -- 29.47 in998.0 mb 0.03 in0.8 mm 0.00 in0.0 mm 0.06 in1.5 mm
03:55 AM 42.9°F6.1°C 40.3°F4.6°C 90% 1.0 mph WNW1.6 kmh WNW -- 29.47 in998.0 mb 0.03 in0.8 mm 0.00 in0.0 mm 0.06 in1.5 mm
04:00 AM 42.8°F6.0°C 40.1°F4.5°C 90% Calm Calm -- 29.47 in998.0 mb 0.03 in0.8 mm 0.00 in0.0 mm 0.06 in1.5 mm
04:05 AM 42.6°F5.9°C 39.6°F4.2°C 89% 1.0 mph W1.6 kmh W 7.0 mph11.3 kmh 29.47 in998.0 mb 0.02 in0.5 mm 0.00 in0.0 mm 0.06 in1.5 mm
04:10 AM 42.7°F5.9°C 39.6°F4.2°C 89% 1.0 mph W1.6 kmh W -- 29.47 in998.0 mb 0.02 in0.5 mm 0.00 in0.0 mm 0.06 in1.5 mm
04:15 AM 42.8°F6.0°C 39.6°F4.2°C 88% 4.0 mph NNW6.4 kmh NNW -- 29.46 in997.6 mb 0.02 in0.5 mm 0.00 in0.0 mm 0.06 in1.5 mm
04:20 AM 42.9°F6.1°C 39.4°F4.1°C 87% Calm Calm -- 29.46 in997.6 mb 0.02 in0.5 mm 0.00 in0.0 mm 0.06 in1.5 mm
04:25 AM 42.8°F6.0°C 39.2°F4.0°C 87% 4.0 mph NE6.4 kmh NE -- 29.46 in997.6 mb 0.02 in0.5 mm 0.00 in0.0 mm 0.06 in1.5 mm
04:30 AM 42.8°F6.0°C 39.2°F4.0°C 87% Calm Calm 5.0 mph8.0 kmh 29.46 in997.6 mb 0.01 in0.3 mm 0.00 in0.0 mm 0.06 in1.5 mm
04:35 AM 42.8°F6.0°C 38.8°F3.8°C 86% 1.0 mph NW1.6 kmh NW -- 29.46 in997.6 mb 0.01 in0.3 mm 0.00 in0.0 mm 0.06 in1.5 mm
04:40 AM 42.8°F6.0°C 38.8°F3.8°C 86% 2.0 mph NW3.2 kmh NW -- 29.46 in997.6 mb 0.01 in0.3 mm 0.00 in0.0 mm 0.06 in1.5 mm
04:45 AM 42.6°F5.9°C 38.7°F3.7°C 86% 1.0 mph WSW1.6 kmh WSW -- 29.46 in997.6 mb 0.00 in0.0 mm 0.00 in0.0 mm 0.06 in1.5 mm
04:50 AM 42.4°F5.8°C 38.8°F3.8°C 87% 2.0 mph NW3.2 kmh NW -- 29.46 in997.6 mb 0.00 in0.0 mm 0.00 in0.0 mm 0.06 in1.5 mm
04:55 AM 42.4°F5.8°C 38.8°F3.8°C 87% Calm Calm 3.0 mph4.8 kmh 29.45 in997.3 mb 0.00 in0.0 mm 0.00 in0.0 mm 0.06 in1.5 mm
05:00 AM 42.4°F5.8°C 38.5°F3.6°C 86% 3.0 mph NNW4.8 kmh NNW -- 29.45 in997.3 mb 0.00 in0.0 mm 0.00 in0.0 mm 0.06 in1.5 mm
05:05 AM 42.4°F5.8°C 38.3°F3.5°C 85% 1.0 mph NW1.6 kmh NW -- 29.45 in997.3 mb 0.00 in0.0 mm 0.00 in0.0 mm 0.06 in1.5 mm
05:10 AM 42.5°F5.8°C 37.9°F3.3°C 84% 2.0 mph N3.2 kmh N -- 29.45 in997.3 mb 0.00 in0.0 mm 0.00 in0.0 mm 0.06 in1.5 mm
05:15 AM 42.5°F5.8°C 37.6°F3.1°C 83% 5.0 mph W8.0 kmh W -- 29.44 in997.0 mb 0.00 in0.0 mm 0.00 in0.0 mm 0.06 in1.5 mm
05:20 AM 42.4°F5.8°C 37.6°F3.1°C 83% 1.0 mph W1.6 kmh W 6.0 mph9.7 kmh 29.44 in997.0 mb 0.00 in0.0 mm 0.00 in0.0 mm 0.06 in1.5 mm
05:25 AM 42.3°F5.7°C 37.8°F3.2°C 84% 2.0 mph W3.2 kmh W -- 29.44 in997.0 mb 0.00 in0.0 mm 0.00 in0.0 mm 0.06 in1.5 mm
05:30 AM 42.1°F5.6°C 37.6°F3.1°C 84% Calm Calm -- 29.44 in997.0 mb 0.00 in0.0 mm 0.00 in0.0 mm 0.06 in1.5 mm
05:35 AM 42.0°F5.6°C 37.6°F3.1°C 84% 1.0 mph WSW1.6 kmh WSW -- 29.44 in997.0 mb 0.00 in0.0 mm 0.00 in0.0 mm 0.06 in1.5 mm
05:40 AM 42.0°F5.6°C 37.6°F3.1°C 84% 1.0 mph WNW1.6 kmh WNW -- 29.44 in997.0 mb 0.00 in0.0 mm 0.00 in0.0 mm 0.06 in1.5 mm
05:45 AM 41.9°F5.5°C 37.0°F2.8°C 83% 2.0 mph W3.2 kmh W 5.0 mph8.0 kmh 29.44 in997.0 mb 0.00 in0.0 mm 0.00 in0.0 mm 0.06 in1.5 mm
05:50 AM 41.8°F5.4°C 37.2°F2.9°C 84% 2.0 mph W3.2 kmh W -- 29.44 in997.0 mb 0.00 in0.0 mm 0.00 in0.0 mm 0.06 in1.5 mm
05:55 AM 41.9°F5.5°C 37.8°F3.2°C 85% Calm Calm -- 29.43 in996.6 mb 0.00 in0.0 mm 0.00 in0.0 mm 0.06 in1.5 mm
06:00 AM 42.3°F5.7°C 38.3°F3.5°C 86% 7.0 mph NW11.3 kmh NW -- 29.43 in996.6 mb 0.00 in0.0 mm 0.00 in0.0 mm 0.06 in1.5 mm
06:05 AM 42.5°F5.8°C 39.2°F4.0°C 88% 4.0 mph NE6.4 kmh NE -- 29.43 in996.6 mb 0.00 in0.0 mm 0.00 in0.0 mm 0.06 in1.5 mm
06:10 AM 42.4°F5.8°C 39.4°F4.1°C 89% 4.0 mph NE6.4 kmh NE 9.0 mph14.5 kmh 29.43 in996.6 mb 0.00 in0.0 mm 0.00 in0.0 mm 0.06 in1.5 mm
06:15 AM 42.4°F5.8°C 39.7°F4.3°C 90% 1.0 mph N1.6 kmh N -- 29.43 in996.6 mb 0.00 in0.0 mm 0.00 in0.0 mm 0.06 in1.5 mm
06:20 AM 42.3°F5.7°C 39.6°F4.2°C 90% 1.0 mph NNW1.6 kmh NNW -- 29.43 in996.6 mb 0.00 in0.0 mm 0.00 in0.0 mm 0.06 in1.5 mm
06:25 AM 42.3°F5.7°C 39.7°F4.3°C 91% 2.0 mph NNW3.2 kmh NNW -- 29.43 in996.6 mb 0.00 in0.0 mm 0.00 in0.0 mm 0.06 in1.5 mm
06:30 AM 42.2°F5.7°C 39.7°F4.3°C 91% 3.0 mph NNE4.8 kmh NNE -- 29.43 in996.6 mb 0.00 in0.0 mm 0.00 in0.0 mm 0.06 in1.5 mm
06:35 AM 42.2°F5.7°C 39.7°F4.3°C 91% 3.0 mph N4.8 kmh N 5.0 mph8.0 kmh 29.42 in996.3 mb 0.00 in0.0 mm 0.00 in0.0 mm 0.06 in1.5 mm
06:40 AM 42.2°F5.7°C 39.7°F4.3°C 91% 1.0 mph NNW1.6 kmh NNW -- 29.42 in996.3 mb 0.00 in0.0 mm 0.00 in0.0 mm 0.06 in1.5 mm
06:45 AM 42.1°F5.6°C 39.6°F4.2°C 91% 3.0 mph N4.8 kmh N -- 29.42 in996.3 mb 0.00 in0.0 mm 0.00 in0.0 mm 0.06 in1.5 mm
06:50 AM 42.0°F5.6°C 39.6°F4.2°C 91% 5.0 mph NE8.0 kmh NE -- 29.42 in996.3 mb 0.00 in0.0 mm 0.00 in0.0 mm 0.06 in1.5 mm
06:55 AM 42.2°F5.7°C 39.7°F4.3°C 91% 4.0 mph NE6.4 kmh NE -- 29.42 in996.3 mb 0.00 in0.0 mm 0.00 in0.0 mm 0.06 in1.5 mm
07:00 AM 42.2°F5.7°C 39.7°F4.3°C 91% 3.0 mph NE4.8 kmh NE 7.0 mph11.3 kmh 29.42 in996.3 mb 0.00 in0.0 mm 0.00 in0.0 mm 0.06 in1.5 mm
07:05 AM 42.0°F5.6°C 39.9°F4.4°C 92% 7.0 mph NE11.3 kmh NE -- 29.42 in996.3 mb 0.00 in0.0 mm 0.00 in0.0 mm 0.06 in1.5 mm
07:10 AM 41.9°F5.5°C 39.7°F4.3°C 92% 8.0 mph NE12.9 kmh NE -- 29.42 in996.3 mb 0.00 in0.0 mm 0.00 in0.0 mm 0.06 in1.5 mm
07:15 AM 41.8°F5.4°C 39.6°F4.2°C 92% 5.0 mph ENE8.0 kmh ENE -- 29.41 in995.9 mb 0.00 in0.0 mm 0.00 in0.0 mm 0.06 in1.5 mm
07:20 AM 41.8°F5.4°C 39.6°F4.2°C 92% 3.0 mph NE4.8 kmh NE -- 29.41 in995.9 mb 0.00 in0.0 mm 0.00 in0.0 mm 0.06 in1.5 mm
07:25 AM 41.7°F5.4°C 39.6°F4.2°C 92% 9.0 mph NE14.5 kmh NE 12.0 mph19.3 kmh 29.41 in995.9 mb 0.00 in0.0 mm 0.00 in0.0 mm 0.06 in1.5 mm
07:30 AM 41.7°F5.4°C 39.2°F4.0°C 91% 5.0 mph NE8.0 kmh NE -- 29.41 in995.9 mb 0.00 in0.0 mm 0.00 in0.0 mm 0.06 in1.5 mm
07:35 AM 41.8°F5.4°C 39.2°F4.0°C 91% 5.0 mph NE8.0 kmh NE -- 29.41 in995.9 mb 0.00 in0.0 mm 0.00 in0.0 mm 0.06 in1.5 mm
07:40 AM 41.9°F5.5°C 39.4°F4.1°C 91% 4.0 mph NW6.4 kmh NW -- 29.41 in995.9 mb 0.00 in0.0 mm 0.00 in0.0 mm 0.06 in1.5 mm
07:45 AM 42.0°F5.6°C 39.6°F4.2°C 91% 2.0 mph N3.2 kmh N -- 29.41 in995.9 mb 0.00 in0.0 mm 0.00 in0.0 mm 0.06 in1.5 mm
07:50 AM 42.0°F5.6°C 39.6°F4.2°C 91% 2.0 mph N3.2 kmh N 7.0 mph11.3 kmh 29.41 in995.9 mb 0.00 in0.0 mm 0.00 in0.0 mm 0.06 in1.5 mm
07:55 AM 42.0°F5.6°C 39.4°F4.1°C 90% 2.0 mph NNW3.2 kmh NNW -- 29.41 in995.9 mb 0.00 in0.0 mm 0.00 in0.0 mm 0.06 in1.5 mm
08:00 AM 42.1°F5.6°C 39.0°F3.9°C 89% 1.0 mph NNW1.6 kmh NNW -- 29.41 in995.9 mb 0.00 in0.0 mm 0.00 in0.0 mm 0.06 in1.5 mm
08:05 AM 42.2°F5.7°C 39.2°F4.0°C 89% 3.0 mph NW4.8 kmh NW -- 29.40 in995.6 mb 0.00 in0.0 mm 0.00 in0.0 mm 0.06 in1.5 mm
08:10 AM 42.3°F5.7°C 39.0°F3.9°C 88% 3.0 mph N4.8 kmh N -- 29.40 in995.6 mb 0.00 in0.0 mm 0.00 in0.0 mm 0.06 in1.5 mm
08:15 AM 42.4°F5.8°C 39.2°F4.0°C 88% 2.0 mph NE3.2 kmh NE 9.0 mph14.5 kmh 29.40 in995.6 mb 0.00 in0.0 mm 0.00 in0.0 mm 0.06 in1.5 mm
08:20 AM 42.4°F5.8°C 38.8°F3.8°C 87% 2.0 mph NE3.2 kmh NE -- 29.40 in995.6 mb 0.00 in0.0 mm 0.00 in0.0 mm 0.06 in1.5 mm
08:25 AM 42.5°F5.8°C 38.5°F3.6°C 86% 7.0 mph ENE11.3 kmh ENE -- 29.40 in995.6 mb 0.00 in0.0 mm 0.00 in0.0 mm 0.06 in1.5 mm
08:30 AM 42.5°F5.8°C 38.5°F3.6°C 86% 4.0 mph NE6.4 kmh NE -- 29.40 in995.6 mb 0.00 in0.0 mm 0.00 in0.0 mm 0.06 in1.5 mm
08:35 AM 42.2°F5.7°C 38.3°F3.5°C 86% 11.0 mph NE17.7 kmh NE -- 29.40 in995.6 mb 0.00 in0.0 mm 0.00 in0.0 mm 0.06 in1.5 mm
08:40 AM 42.2°F5.7°C 38.1°F3.4°C 85% 8.0 mph NE12.9 kmh NE 12.0 mph19.3 kmh 29.40 in995.6 mb 0.00 in0.0 mm 0.00 in0.0 mm 0.06 in1.5 mm
08:45 AM 42.3°F5.7°C 37.8°F3.2°C 84% 4.0 mph NE6.4 kmh NE -- 29.40 in995.6 mb 0.00 in0.0 mm 0.00 in0.0 mm 0.06 in1.5 mm
08:50 AM 42.3°F5.7°C 37.8°F3.2°C 84% 4.0 mph ENE6.4 kmh ENE -- 29.39 in995.3 mb 0.00 in0.0 mm 0.00 in0.0 mm 0.06 in1.5 mm
08:55 AM 42.2°F5.7°C 37.2°F2.9°C 82% 6.0 mph NE9.7 kmh NE -- 29.39 in995.3 mb 0.00 in0.0 mm 0.00 in0.0 mm 0.06 in1.5 mm
09:00 AM 42.3°F5.7°C 37.2°F2.9°C 82% 7.0 mph NE11.3 kmh NE -- 29.39 in995.3 mb 0.00 in0.0 mm 0.00 in0.0 mm 0.06 in1.5 mm
09:05 AM 42.3°F5.7°C 37.2°F2.9°C 82% 4.0 mph NE6.4 kmh NE 10.0 mph16.1 kmh 29.39 in995.3 mb 0.00 in0.0 mm 0.00 in0.0 mm 0.06 in1.5 mm
09:10 AM 42.6°F5.9°C 37.2°F2.9°C 81% 7.0 mph NE11.3 kmh NE -- 29.39 in995.3 mb 0.00 in0.0 mm 0.00 in0.0 mm 0.06 in1.5 mm
09:15 AM 42.9°F6.1°C 37.6°F3.1°C 81% 10.0 mph NE16.1 kmh NE -- 29.39 in995.3 mb 0.00 in0.0 mm 0.00 in0.0 mm 0.06 in1.5 mm
09:20 AM 42.7°F5.9°C 37.2°F2.9°C 81% 4.0 mph ENE6.4 kmh ENE -- 29.38 in994.9 mb 0.00 in0.0 mm 0.00 in0.0 mm 0.06 in1.5 mm
09:25 AM 42.5°F5.8°C 36.7°F2.6°C 80% 8.0 mph NE12.9 kmh NE -- 29.39 in995.3 mb 0.00 in0.0 mm 0.00 in0.0 mm 0.06 in1.5 mm
09:30 AM 42.3°F5.7°C 36.5°F2.5°C 80% 4.0 mph NE6.4 kmh NE 12.0 mph19.3 kmh 29.39 in995.3 mb 0.00 in0.0 mm 0.00 in0.0 mm 0.06 in1.5 mm
09:35 AM 42.6°F5.9°C 36.9°F2.7°C 80% 2.0 mph NE3.2 kmh NE -- 29.38 in994.9 mb 0.00 in0.0 mm 0.00 in0.0 mm 0.06 in1.5 mm
09:40 AM 42.5°F5.8°C 36.3°F2.4°C 79% 8.0 mph NE12.9 kmh NE -- 29.38 in994.9 mb 0.00 in0.0 mm 0.00 in0.0 mm 0.06 in1.5 mm
09:45 AM 42.2°F5.7°C 36.1°F2.3°C 79% 7.0 mph NE11.3 kmh NE -- 29.38 in994.9 mb 0.00 in0.0 mm 0.00 in0.0 mm 0.06 in1.5 mm
09:50 AM 42.4°F5.8°C 36.7°F2.6°C 80% 7.0 mph ENE11.3 kmh ENE -- 29.38 in994.9 mb 0.00 in0.0 mm 0.00 in0.0 mm 0.06 in1.5 mm
09:55 AM 42.7°F5.9°C 36.5°F2.5°C 79% 7.0 mph NE11.3 kmh NE 8.0 mph12.9 kmh 29.38 in994.9 mb 0.00 in0.0 mm 0.00 in0.0 mm 0.06 in1.5 mm
10:00 AM 42.5°F5.8°C 36.3°F2.4°C 79% 2.0 mph ENE3.2 kmh ENE -- 29.38 in994.9 mb 0.00 in0.0 mm 0.00 in0.0 mm 0.06 in1.5 mm
10:05 AM 42.6°F5.9°C 36.5°F2.5°C 79% 7.0 mph ENE11.3 kmh ENE -- 29.37 in994.6 mb 0.00 in0.0 mm 0.00 in0.0 mm 0.06 in1.5 mm
10:10 AM 42.8°F6.0°C 36.5°F2.5°C 78% 4.0 mph NE6.4 kmh NE -- 29.37 in994.6 mb 0.00 in0.0 mm 0.00 in0.0 mm 0.06 in1.5 mm
10:15 AM 43.1°F6.2°C 36.9°F2.7°C 78% 3.0 mph NE4.8 kmh NE -- 29.37 in994.6 mb 0.00 in0.0 mm 0.00 in0.0 mm 0.06 in1.5 mm
10:20 AM 43.0°F6.1°C 36.7°F2.6°C 78% 3.0 mph NE4.8 kmh NE 11.0 mph17.7 kmh 29.37 in994.6 mb 0.00 in0.0 mm 0.00 in0.0 mm 0.06 in1.5 mm
10:25 AM 42.9°F6.1°C 36.7°F2.6°C 78% 3.0 mph NNE4.8 kmh NNE -- 29.37 in994.6 mb 0.00 in0.0 mm 0.00 in0.0 mm 0.06 in1.5 mm
10:30 AM 43.0°F6.1°C 36.7°F2.6°C 78% 7.0 mph ENE11.3 kmh ENE -- 29.36 in994.2 mb 0.00 in0.0 mm 0.00 in0.0 mm 0.06 in1.5 mm
10:35 AM 43.1°F6.2°C 36.5°F2.5°C 77% 5.0 mph NE8.0 kmh NE -- 29.36 in994.2 mb 0.00 in0.0 mm 0.00 in0.0 mm 0.06 in1.5 mm
10:40 AM 43.0°F6.1°C 36.0°F2.2°C 76% 3.0 mph NE4.8 kmh NE -- 29.36 in994.2 mb 0.00 in0.0 mm 0.00 in0.0 mm 0.06 in1.5 mm
10:45 AM 43.1°F6.2°C 36.5°F2.5°C 77% 5.0 mph NE8.0 kmh NE 11.0 mph17.7 kmh 29.36 in994.2 mb 0.00 in0.0 mm 0.00 in0.0 mm 0.06 in1.5 mm
10:50 AM 42.9°F6.1°C 36.0°F2.2°C 76% 7.0 mph ENE11.3 kmh ENE -- 29.36 in994.2 mb 0.00 in0.0 mm 0.00 in0.0 mm 0.06 in1.5 mm
10:55 AM 42.7°F5.9°C 35.6°F2.0°C 76% 4.0 mph NE6.4 kmh NE -- 29.36 in994.2 mb 0.00 in0.0 mm 0.00 in0.0 mm 0.06 in1.5 mm
11:00 AM 42.8°F6.0°C 35.4°F1.9°C 75% 5.0 mph NE8.0 kmh NE -- 29.36 in994.2 mb 0.00 in0.0 mm 0.00 in0.0 mm 0.06 in1.5 mm
11:05 AM 42.9°F6.1°C 35.2°F1.8°C 74% Calm Calm -- 29.36 in994.2 mb 0.00 in0.0 mm 0.00 in0.0 mm 0.06 in1.5 mm
11:10 AM 42.9°F6.1°C 35.6°F2.0°C 75% 5.0 mph ENE8.0 kmh ENE 7.0 mph11.3 kmh 29.36 in994.2 mb 0.00 in0.0 mm 0.00 in0.0 mm 0.06 in1.5 mm
11:15 AM 43.0°F6.1°C 35.6°F2.0°C 75% 3.0 mph ENE4.8 kmh ENE -- 29.36 in994.2 mb 0.00 in0.0 mm 0.00 in0.0 mm 0.06 in1.5 mm
11:20 AM 43.0°F6.1°C 35.6°F2.0°C 75% 5.0 mph NE8.0 kmh NE -- 29.36 in994.2 mb 0.00 in0.0 mm 0.00 in0.0 mm 0.06 in1.5 mm
11:25 AM 43.0°F6.1°C 35.2°F1.8°C 74% 5.0 mph N8.0 kmh N -- 29.35 in993.9 mb 0.00 in0.0 mm 0.00 in0.0 mm 0.06 in1.5 mm
11:30 AM 43.0°F6.1°C 35.2°F1.8°C 74% 7.0 mph NE11.3 kmh NE -- 29.35 in993.9 mb 0.00 in0.0 mm 0.00 in0.0 mm 0.06 in1.5 mm
11:35 AM 43.1°F6.2°C 35.1°F1.7°C 73% 5.0 mph NNE8.0 kmh NNE 8.0 mph12.9 kmh 29.35 in993.9 mb 0.00 in0.0 mm 0.00 in0.0 mm 0.06 in1.5 mm
11:40 AM 43.1°F6.2°C 35.4°F1.9°C 74% 4.0 mph N6.4 kmh N -- 29.35 in993.9 mb 0.00 in0.0 mm 0.00 in0.0 mm 0.06 in1.5 mm
11:45 AM 43.1°F6.2°C 35.1°F1.7°C 73% 3.0 mph NE4.8 kmh NE -- 29.35 in993.9 mb 0.00 in0.0 mm 0.00 in0.0 mm 0.06 in1.5 mm
11:50 AM 43.4°F6.3°C 35.6°F2.0°C 74% 5.0 mph ENE8.0 kmh ENE -- 29.35 in993.9 mb 0.00 in0.0 mm 0.00 in0.0 mm 0.06 in1.5 mm
11:55 AM 43.6°F6.4°C 35.1°F1.7°C 72% 5.0 mph ENE8.0 kmh ENE -- 29.34 in993.6 mb 0.00 in0.0 mm 0.00 in0.0 mm 0.06 in1.5 mm
12:00 PM 43.6°F6.4°C 35.1°F1.7°C 72% 6.0 mph NE9.7 kmh NE 12.0 mph19.3 kmh 29.34 in993.6 mb 0.00 in0.0 mm 0.00 in0.0 mm 0.06 in1.5 mm
12:05 PM 43.4°F6.3°C 34.9°F1.6°C 72% 6.0 mph ENE9.7 kmh ENE -- 29.34 in993.6 mb 0.00 in0.0 mm 0.00 in0.0 mm 0.06 in1.5 mm
12:10 PM 43.1°F6.2°C 34.7°F1.5°C 72% 3.0 mph NE4.8 kmh NE -- 29.34 in993.6 mb 0.00 in0.0 mm 0.00 in0.0 mm 0.06 in1.5 mm
12:15 PM 43.4°F6.3°C 34.5°F1.4°C 71% 4.0 mph NNE6.4 kmh NNE -- 29.34 in993.6 mb 0.00 in0.0 mm 0.00 in0.0 mm 0.06 in1.5 mm
12:20 PM 43.7°F6.5°C 34.9°F1.6°C 71% 6.0 mph NE9.7 kmh NE -- 29.34 in993.6 mb 0.00 in0.0 mm 0.00 in0.0 mm 0.06 in1.5 mm
12:25 PM 43.4°F6.3°C 34.5°F1.4°C 71% 8.0 mph ENE12.9 kmh ENE 11.0 mph17.7 kmh 29.34 in993.6 mb 0.00 in0.0 mm 0.00 in0.0 mm 0.06 in1.5 mm
12:30 PM 43.1°F6.2°C 34.7°F1.5°C 72% 6.0 mph ENE9.7 kmh ENE -- 29.33 in993.2 mb 0.00 in0.0 mm 0.00 in0.0 mm 0.06 in1.5 mm
12:35 PM 42.9°F6.1°C 34.5°F1.4°C 72% 6.0 mph NE9.7 kmh NE -- 29.33 in993.2 mb 0.00 in0.0 mm 0.00 in0.0 mm 0.06 in1.5 mm
12:40 PM 43.0°F6.1°C 34.5°F1.4°C 72% 6.0 mph ENE9.7 kmh ENE -- 29.33 in993.2 mb 0.00 in0.0 mm 0.00 in0.0 mm 0.06 in1.5 mm
12:45 PM 43.0°F6.1°C 34.2°F1.2°C 71% 5.0 mph ENE8.0 kmh ENE -- 29.33 in993.2 mb 0.00 in0.0 mm 0.00 in0.0 mm 0.06 in1.5 mm
12:50 PM 43.0°F6.1°C 34.2°F1.2°C 71% 6.0 mph ENE9.7 kmh ENE 8.0 mph12.9 kmh 29.33 in993.2 mb 0.00 in0.0 mm 0.00 in0.0 mm 0.06 in1.5 mm
12:55 PM 43.0°F6.1°C 34.5°F1.4°C 72% 5.0 mph NE8.0 kmh NE -- 29.33 in993.2 mb 0.00 in0.0 mm 0.00 in0.0 mm 0.06 in1.5 mm
01:00 PM 43.0°F6.1°C 34.5°F1.4°C 72% 6.0 mph ENE9.7 kmh ENE -- 29.33 in993.2 mb 0.00 in0.0 mm 0.00 in0.0 mm 0.06 in1.5 mm
01:05 PM 42.9°F6.1°C 34.5°F1.4°C 72% 5.0 mph NE8.0 kmh NE -- 29.32 in992.9 mb 0.00 in0.0 mm 0.00 in0.0 mm 0.06 in1.5 mm
01:10 PM 42.9°F6.1°C 34.5°F1.4°C 72% 6.0 mph NE9.7 kmh NE -- 29.32 in992.9 mb 0.00 in0.0 mm 0.00 in0.0 mm 0.06 in1.5 mm
01:15 PM 42.9°F6.1°C 34.5°F1.4°C 72% 8.0 mph NE12.9 kmh NE 10.0 mph16.1 kmh 29.32 in992.9 mb 0.00 in0.0 mm 0.00 in0.0 mm 0.06 in1.5 mm
01:20 PM 43.1°F6.2°C 34.7°F1.5°C 72% 8.0 mph NE12.9 kmh NE -- 29.32 in992.9 mb 0.00 in0.0 mm 0.00 in0.0 mm 0.06 in1.5 mm
01:25 PM 43.2°F6.2°C 34.7°F1.5°C 72% 4.0 mph NE6.4 kmh NE -- 29.32 in992.9 mb 0.00 in0.0 mm 0.00 in0.0 mm 0.06 in1.5 mm
01:30 PM 43.2°F6.2°C 34.3°F1.3°C 71% 8.0 mph ENE12.9 kmh ENE -- 29.32 in992.9 mb 0.00 in0.0 mm 0.00 in0.0 mm 0.06 in1.5 mm
01:35 PM 43.1°F6.2°C 34.7°F1.5°C 72% 4.0 mph NE6.4 kmh NE -- 29.32 in992.9 mb 0.00 in0.0 mm 0.00 in0.0 mm 0.06 in1.5 mm
01:40 PM 43.1°F6.2°C 34.3°F1.3°C 71% 5.0 mph NE8.0 kmh NE 8.0 mph12.9 kmh 29.32 in992.9 mb 0.00 in0.0 mm 0.00 in0.0 mm 0.06 in1.5 mm
01:45 PM 43.0°F6.1°C 34.2°F1.2°C 71% 1.0 mph NE1.6 kmh NE -- 29.32 in992.9 mb 0.00 in0.0 mm 0.00 in0.0 mm 0.06 in1.5 mm
01:50 PM 43.1°F6.2°C 34.0°F1.1°C 70% 2.0 mph NE3.2 kmh NE -- 29.32 in992.9 mb 0.00 in0.0 mm 0.00 in0.0 mm 0.06 in1.5 mm
01:55 PM 43.3°F6.3°C 34.5°F1.4°C 71% 6.0 mph NE9.7 kmh NE -- 29.31 in992.6 mb 0.00 in0.0 mm 0.00 in0.0 mm 0.06 in1.5 mm
02:00 PM 43.4°F6.3°C 34.5°F1.4°C 71% 8.0 mph ENE12.9 kmh ENE -- 29.31 in992.6 mb 0.00 in0.0 mm 0.00 in0.0 mm 0.06 in1.5 mm
02:05 PM 43.3°F6.3°C 34.5°F1.4°C 71% 5.0 mph NE8.0 kmh NE 10.0 mph16.1 kmh 29.31 in992.6 mb 0.00 in0.0 mm 0.00 in0.0 mm 0.06 in1.5 mm
02:10 PM 43.3°F6.3°C 34.5°F1.4°C 71% 5.0 mph NE8.0 kmh NE -- 29.31 in992.6 mb 0.00 in0.0 mm 0.00 in0.0 mm 0.06 in1.5 mm
02:15 PM 43.2°F6.2°C 34.3°F1.3°C 71% 4.0 mph NE6.4 kmh NE -- 29.31 in992.6 mb 0.00 in0.0 mm 0.00 in0.0 mm 0.06 in1.5 mm
02:20 PM 43.2°F6.2°C 34.3°F1.3°C 71% 4.0 mph NE6.4 kmh NE -- 29.31 in992.6 mb 0.00 in0.0 mm 0.00 in0.0 mm 0.06 in1.5 mm
02:25 PM 43.1°F6.2°C 34.7°F1.5°C 72% 4.0 mph NE6.4 kmh NE -- 29.30 in992.2 mb 0.00 in0.0 mm 0.00 in0.0 mm 0.06 in1.5 mm
02:30 PM 42.9°F6.1°C 34.2°F1.2°C 71% 7.0 mph NE11.3 kmh NE 11.0 mph17.7 kmh 29.30 in992.2 mb 0.00 in0.0 mm 0.00 in0.0 mm 0.06 in1.5 mm
02:35 PM 42.9°F6.1°C 34.5°F1.4°C 72% 7.0 mph NE11.3 kmh NE -- 29.30 in992.2 mb 0.00 in0.0 mm 0.00 in0.0 mm 0.06 in1.5 mm
02:40 PM 42.9°F6.1°C 34.2°F1.2°C 71% 3.0 mph NE4.8 kmh NE -- 29.30 in992.2 mb 0.00 in0.0 mm 0.00 in0.0 mm 0.06 in1.5 mm
02:45 PM 42.9°F6.1°C 34.2°F1.2°C 71% 6.0 mph N9.7 kmh N -- 29.30 in992.2 mb 0.00 in0.0 mm 0.00 in0.0 mm 0.06 in1.5 mm
02:50 PM 42.9°F6.1°C 34.2°F1.2°C 71% 3.0 mph NE4.8 kmh NE -- 29.30 in992.2 mb 0.00 in0.0 mm 0.00 in0.0 mm 0.06 in1.5 mm
02:55 PM 43.0°F6.1°C 34.2°F1.2°C 71% 4.0 mph NE6.4 kmh NE 9.0 mph14.5 kmh 29.30 in992.2 mb 0.00 in0.0 mm 0.00 in0.0 mm 0.06 in1.5 mm
03:00 PM 43.0°F6.1°C 34.2°F1.2°C 71% 6.0 mph NE9.7 kmh NE -- 29.30 in992.2 mb 0.00 in0.0 mm 0.00 in0.0 mm 0.06 in1.5 mm
03:05 PM 43.0°F6.1°C 34.2°F1.2°C 71% 3.0 mph NE4.8 kmh NE -- 29.29 in991.9 mb 0.00 in0.0 mm 0.00 in0.0 mm 0.06 in1.5 mm
03:10 PM 43.1°F6.2°C 34.3°F1.3°C 71% 5.0 mph NE8.0 kmh NE -- 29.29 in991.9 mb 0.00 in0.0 mm 0.00 in0.0 mm 0.06 in1.5 mm
03:15 PM 43.1°F6.2°C 33.6°F0.9°C 69% 6.0 mph NE9.7 kmh NE -- 29.29 in991.9 mb 0.00 in0.0 mm 0.00 in0.0 mm 0.06 in1.5 mm
03:20 PM 43.2°F6.2°C 34.0°F1.1°C 70% 4.0 mph NE6.4 kmh NE 10.0 mph16.1 kmh 29.29 in991.9 mb 0.00 in0.0 mm 0.00 in0.0 mm 0.06 in1.5 mm
03:25 PM 43.2°F6.2°C 34.0°F1.1°C 70% 5.0 mph NE8.0 kmh NE -- 29.29 in991.9 mb 0.00 in0.0 mm 0.00 in0.0 mm 0.06 in1.5 mm
03:30 PM 43.4°F6.3°C 34.2°F1.2°C 70% 4.0 mph NE6.4 kmh NE -- 29.28 in991.5 mb 0.00 in0.0 mm 0.00 in0.0 mm 0.06 in1.5 mm
03:35 PM 43.3°F6.3°C 34.2°F1.2°C 70% 5.0 mph NE8.0 kmh NE -- 29.29 in991.9 mb 0.00 in0.0 mm 0.00 in0.0 mm 0.06 in1.5 mm
03:40 PM 43.2°F6.2°C 34.0°F1.1°C 70% 8.0 mph NE12.9 kmh NE -- 29.28 in991.5 mb 0.00 in0.0 mm 0.00 in0.0 mm 0.06 in1.5 mm
03:45 PM 43.1°F6.2°C 34.0°F1.1°C 70% 5.0 mph NNE8.0 kmh NNE 10.0 mph16.1 kmh 29.28 in991.5 mb 0.00 in0.0 mm 0.00 in0.0 mm 0.06 in1.5 mm
03:50 PM 42.9°F6.1°C 33.8°F1.0°C 70% 6.0 mph NE9.7 kmh NE -- 29.28 in991.5 mb 0.00 in0.0 mm 0.00 in0.0 mm 0.06 in1.5 mm
03:55 PM 42.9°F6.1°C 33.4°F0.8°C 69% 6.0 mph NE9.7 kmh NE -- 29.28 in991.5 mb 0.00 in0.0 mm 0.00 in0.0 mm 0.06 in1.5 mm
04:00 PM 42.8°F6.0°C 33.3°F0.7°C 69% 11.0 mph ENE17.7 kmh ENE -- 29.28 in991.5 mb 0.00 in0.0 mm 0.00 in0.0 mm 0.06 in1.5 mm
04:05 PM 42.8°F6.0°C 32.9°F0.5°C 68% 5.0 mph NE8.0 kmh NE -- 29.28 in991.5 mb 0.00 in0.0 mm 0.00 in0.0 mm 0.06 in1.5 mm
04:10 PM 42.7°F5.9°C 32.7°F0.4°C 68% 5.0 mph NE8.0 kmh NE 12.0 mph19.3 kmh 29.27 in991.2 mb 0.00 in0.0 mm 0.00 in0.0 mm 0.06 in1.5 mm
04:15 PM 42.7°F5.9°C 33.3°F0.7°C 69% 8.0 mph NE12.9 kmh NE -- 29.27 in991.2 mb 0.00 in0.0 mm 0.00 in0.0 mm 0.06 in1.5 mm
04:20 PM 42.7°F5.9°C 33.3°F0.7°C 69% 6.0 mph NE9.7 kmh NE -- 29.27 in991.2 mb 0.00 in0.0 mm 0.00 in0.0 mm 0.06 in1.5 mm
04:25 PM 42.7°F5.9°C 33.3°F0.7°C 69% 6.0 mph NE9.7 kmh NE -- 29.27 in991.2 mb 0.00 in0.0 mm 0.00 in0.0 mm 0.06 in1.5 mm
04:30 PM 42.7°F5.9°C 33.3°F0.7°C 69% 4.0 mph NE6.4 kmh NE -- 29.27 in991.2 mb 0.00 in0.0 mm 0.00 in0.0 mm 0.06 in1.5 mm
04:35 PM 42.6°F5.9°C 33.3°F0.7°C 69% 5.0 mph NNE8.0 kmh NNE 9.0 mph14.5 kmh 29.27 in991.2 mb 0.00 in0.0 mm 0.00 in0.0 mm 0.06 in1.5 mm
04:40 PM 42.6°F5.9°C 33.3°F0.7°C 69% 3.0 mph NE4.8 kmh NE -- 29.27 in991.2 mb 0.00 in0.0 mm 0.00 in0.0 mm 0.06 in1.5 mm
04:45 PM 42.7°F5.9°C 33.6°F0.9°C 70% 3.0 mph NNE4.8 kmh NNE -- 29.26 in990.9 mb 0.00 in0.0 mm 0.00 in0.0 mm 0.06 in1.5 mm
04:50 PM 42.9°F6.1°C 34.2°F1.2°C 71% 6.0 mph NE9.7 kmh NE -- 29.26 in990.9 mb 0.00 in0.0 mm 0.00 in0.0 mm 0.06 in1.5 mm
04:55 PM 42.9°F6.1°C 34.5°F1.4°C 72% 5.0 mph NE8.0 kmh NE -- 29.26 in990.9 mb 0.00 in0.0 mm 0.00 in0.0 mm 0.06 in1.5 mm
05:00 PM 43.0°F6.1°C 34.2°F1.2°C 71% 7.0 mph NE11.3 kmh NE 12.0 mph19.3 kmh 29.26 in990.9 mb 0.00 in0.0 mm 0.00 in0.0 mm 0.06 in1.5 mm
05:05 PM 42.9°F6.1°C 34.2°F1.2°C 71% 6.0 mph NE9.7 kmh NE -- 29.26 in990.9 mb 0.00 in0.0 mm 0.00 in0.0 mm 0.06 in1.5 mm
05:10 PM 43.0°F6.1°C 34.2°F1.2°C 71% 6.0 mph NE9.7 kmh NE -- 29.26 in990.9 mb 0.00 in0.0 mm 0.00 in0.0 mm 0.06 in1.5 mm
05:15 PM 43.0°F6.1°C 33.8°F1.0°C 70% 7.0 mph NE11.3 kmh NE -- 29.26 in990.9 mb 0.00 in0.0 mm 0.00 in0.0 mm 0.06 in1.5 mm
05:20 PM 43.0°F6.1°C 34.5°F1.4°C 72% 10.0 mph NE16.1 kmh NE -- 29.26 in990.9 mb 0.00 in0.0 mm 0.00 in0.0 mm 0.06 in1.5 mm
05:25 PM 43.0°F6.1°C 34.9°F1.6°C 73% 7.0 mph NNE11.3 kmh NNE 11.0 mph17.7 kmh 29.25 in990.5 mb 0.00 in0.0 mm 0.00 in0.0 mm 0.06 in1.5 mm
05:30 PM 42.9°F6.1°C 34.9°F1.6°C 73% 6.0 mph NE9.7 kmh NE -- 29.25 in990.5 mb 0.00 in0.0 mm 0.00 in0.0 mm 0.06 in1.5 mm
05:35 PM 42.8°F6.0°C 34.7°F1.5°C 73% 4.0 mph NE6.4 kmh NE -- 29.25 in990.5 mb 0.00 in0.0 mm 0.00 in0.0 mm 0.06 in1.5 mm
05:40 PM 42.9°F6.1°C 34.9°F1.6°C 73% 7.0 mph NE11.3 kmh NE -- 29.25 in990.5 mb 0.00 in0.0 mm 0.00 in0.0 mm 0.06 in1.5 mm
05:45 PM 42.9°F6.1°C 34.9°F1.6°C 73% 5.0 mph NE8.0 kmh NE -- 29.25 in990.5 mb 0.00 in0.0 mm 0.00 in0.0 mm 0.06 in1.5 mm
05:50 PM 42.9°F6.1°C 34.9°F1.6°C 73% 6.0 mph NE9.7 kmh NE 10.0 mph16.1 kmh 29.25 in990.5 mb 0.00 in0.0 mm 0.00 in0.0 mm 0.06 in1.5 mm
05:55 PM 42.9°F6.1°C 34.9°F1.6°C 73% 5.0 mph NNE8.0 kmh NNE -- 29.25 in990.5 mb 0.00 in0.0 mm 0.00 in0.0 mm 0.06 in1.5 mm
06:00 PM 43.0°F6.1°C 35.2°F1.8°C 74% 4.0 mph NE6.4 kmh NE -- 29.24 in990.2 mb 0.00 in0.0 mm 0.00 in0.0 mm 0.06 in1.5 mm
06:05 PM 43.0°F6.1°C 35.2°F1.8°C 74% 5.0 mph NE8.0 kmh NE -- 29.24 in990.2 mb 0.00 in0.0 mm 0.00 in0.0 mm 0.06 in1.5 mm
06:10 PM 43.0°F6.1°C 35.2°F1.8°C 74% 6.0 mph NE9.7 kmh NE -- 29.24 in990.2 mb 0.00 in0.0 mm 0.00 in0.0 mm 0.06 in1.5 mm
06:15 PM 43.0°F6.1°C 35.2°F1.8°C 74% 3.0 mph NNE4.8 kmh NNE 11.0 mph17.7 kmh 29.24 in990.2 mb 0.00 in0.0 mm 0.00 in0.0 mm 0.06 in1.5 mm
06:20 PM 42.9°F6.1°C 35.2°F1.8°C 74% 2.0 mph NE3.2 kmh NE -- 29.24 in990.2 mb 0.00 in0.0 mm 0.00 in0.0 mm 0.06 in1.5 mm
06:25 PM 43.0°F6.1°C 35.2°F1.8°C 74% 4.0 mph NE6.4 kmh NE -- 29.24 in990.2 mb 0.00 in0.0 mm 0.00 in0.0 mm 0.06 in1.5 mm
06:30 PM 43.0°F6.1°C 35.2°F1.8°C 74% 7.0 mph NE11.3 kmh NE -- 29.23 in989.8 mb 0.00 in0.0 mm 0.00 in0.0 mm 0.06 in1.5 mm
06:35 PM 43.1°F6.2°C 35.4°F1.9°C 74% 8.0 mph NE12.9 kmh NE -- 29.23 in989.8 mb 0.00 in0.0 mm 0.00 in0.0 mm 0.06 in1.5 mm
06:40 PM 43.2°F6.2°C 35.4°F1.9°C 74% 6.0 mph NE9.7 kmh NE 12.0 mph19.3 kmh 29.23 in989.8 mb 0.00 in0.0 mm 0.00 in0.0 mm 0.06 in1.5 mm
06:45 PM 43.1°F6.2°C 35.8°F2.1°C 75% 4.0 mph NE6.4 kmh NE -- 29.23 in989.8 mb 0.00 in0.0 mm 0.00 in0.0 mm 0.06 in1.5 mm
06:50 PM 43.1°F6.2°C 35.8°F2.1°C 75% 9.0 mph NNE14.5 kmh NNE -- 29.23 in989.8 mb 0.00 in0.0 mm 0.00 in0.0 mm 0.06 in1.5 mm
06:55 PM 43.0°F6.1°C 35.6°F2.0°C 75% 6.0 mph NE9.7 kmh NE -- 29.23 in989.8 mb 0.00 in0.0 mm 0.00 in0.0 mm 0.06 in1.5 mm
07:00 PM 43.1°F6.2°C 35.8°F2.1°C 75% 7.0 mph NE11.3 kmh NE -- 29.23 in989.8 mb 0.00 in0.0 mm 0.00 in0.0 mm 0.06 in1.5 mm
07:05 PM 43.1°F6.2°C 36.1°F2.3°C 76% 6.0 mph NE9.7 kmh NE 12.0 mph19.3 kmh 29.23 in989.8 mb 0.00 in0.0 mm 0.00 in0.0 mm 0.06 in1.5 mm
07:10 PM 43.1°F6.2°C 36.5°F2.5°C 77% 12.0 mph NE19.3 kmh NE -- 29.23 in989.8 mb 0.00 in0.0 mm 0.00 in0.0 mm 0.06 in1.5 mm
07:15 PM 43.0°F6.1°C 36.3°F2.4°C 77% 6.0 mph NE9.7 kmh NE -- 29.23 in989.8 mb 0.00 in0.0 mm 0.00 in0.0 mm 0.06 in1.5 mm
07:20 PM 42.9°F6.1°C 36.3°F2.4°C 77% 5.0 mph NE8.0 kmh NE -- 29.23 in989.8 mb 0.00 in0.0 mm 0.00 in0.0 mm 0.06 in1.5 mm
07:25 PM 42.9°F6.1°C 36.3°F2.4°C 77% 6.0 mph NE9.7 kmh NE -- 29.23 in989.8 mb 0.00 in0.0 mm 0.00 in0.0 mm 0.06 in1.5 mm
07:30 PM 42.9°F6.1°C 36.3°F2.4°C 77% 7.0 mph NE11.3 kmh NE 11.0 mph17.7 kmh 29.23 in989.8 mb 0.00 in0.0 mm 0.00 in0.0 mm 0.06 in1.5 mm
07:35 PM 42.9°F6.1°C 36.3°F2.4°C 77% 3.0 mph NE4.8 kmh NE -- 29.23 in989.8 mb 0.00 in0.0 mm 0.00 in0.0 mm 0.06 in1.5 mm
07:40 PM 42.9°F6.1°C 36.3°F2.4°C 77% 6.0 mph NE9.7 kmh NE -- 29.23 in989.8 mb 0.00 in0.0 mm 0.00 in0.0 mm 0.06 in1.5 mm
07:45 PM 42.9°F6.1°C 36.7°F2.6°C 78% 5.0 mph NE8.0 kmh NE -- 29.22 in989.5 mb 0.00 in0.0 mm 0.00 in0.0 mm 0.06 in1.5 mm
07:50 PM 42.9°F6.1°C 36.7°F2.6°C 78% 5.0 mph NE8.0 kmh NE -- 29.22 in989.5 mb 0.00 in0.0 mm 0.00 in0.0 mm 0.06 in1.5 mm
07:55 PM 42.9°F6.1°C 36.3°F2.4°C 77% 7.0 mph NE11.3 kmh NE 10.0 mph16.1 kmh 29.22 in989.5 mb 0.00 in0.0 mm 0.00 in0.0 mm 0.06 in1.5 mm
08:00 PM 42.9°F6.1°C 36.7°F2.6°C 78% 6.0 mph NE9.7 kmh NE -- 29.22 in989.5 mb 0.00 in0.0 mm 0.00 in0.0 mm 0.06 in1.5 mm
08:05 PM 42.8°F6.0°C 36.5°F2.5°C 78% 5.0 mph NE8.0 kmh NE -- 29.22 in989.5 mb 0.00 in0.0 mm 0.00 in0.0 mm 0.06 in1.5 mm
08:10 PM 42.8°F6.0°C 36.5°F2.5°C 78% 3.0 mph ENE4.8 kmh ENE -- 29.22 in989.5 mb 0.00 in0.0 mm 0.00 in0.0 mm 0.06 in1.5 mm
08:15 PM 42.9°F6.1°C 36.9°F2.7°C 79% 3.0 mph N4.8 kmh N -- 29.22 in989.5 mb 0.00 in0.0 mm 0.00 in0.0 mm 0.06 in1.5 mm
08:20 PM 42.9°F6.1°C 36.9°F2.7°C 79% 4.0 mph NE6.4 kmh NE 11.0 mph17.7 kmh 29.22 in989.5 mb 0.00 in0.0 mm 0.00 in0.0 mm 0.06 in1.5 mm
08:25 PM 43.1°F6.2°C 37.4°F3.0°C 80% 10.0 mph NE16.1 kmh NE -- 29.22 in989.5 mb 0.00 in0.0 mm 0.00 in0.0 mm 0.06 in1.5 mm
08:30 PM 43.1°F6.2°C 37.0°F2.8°C 79% 4.0 mph NE6.4 kmh NE -- 29.22 in989.5 mb 0.00 in0.0 mm 0.00 in0.0 mm 0.06 in1.5 mm
08:35 PM 43.1°F6.2°C 37.0°F2.8°C 79% 7.0 mph NE11.3 kmh NE -- 29.22 in989.5 mb 0.00 in0.0 mm 0.00 in0.0 mm 0.06 in1.5 mm
08:40 PM 43.0°F6.1°C 36.9°F2.7°C 79% 3.0 mph NE4.8 kmh NE -- 29.22 in989.5 mb 0.00 in0.0 mm 0.00 in0.0 mm 0.06 in1.5 mm
08:45 PM 43.1°F6.2°C 37.0°F2.8°C 79% 10.0 mph NE16.1 kmh NE 13.0 mph20.9 kmh 29.22 in989.5 mb 0.00 in0.0 mm 0.00 in0.0 mm 0.06 in1.5 mm
08:50 PM 43.1°F6.2°C 37.0°F2.8°C 79% 10.0 mph NE16.1 kmh NE -- 29.21 in989.2 mb 0.00 in0.0 mm 0.00 in0.0 mm 0.06 in1.5 mm
08:55 PM 43.2°F6.2°C 37.0°F2.8°C 79% 7.0 mph NE11.3 kmh NE -- 29.21 in989.2 mb 0.00 in0.0 mm 0.00 in0.0 mm 0.06 in1.5 mm
09:00 PM 43.1°F6.2°C 37.0°F2.8°C 79% 7.0 mph NE11.3 kmh NE -- 29.21 in989.2 mb 0.00 in0.0 mm 0.00 in0.0 mm 0.06 in1.5 mm
09:05 PM 43.1°F6.2°C 37.0°F2.8°C 79% 8.0 mph NE12.9 kmh NE -- 29.21 in989.2 mb 0.00 in0.0 mm 0.00 in0.0 mm 0.06 in1.5 mm
09:10 PM 43.2°F6.2°C 37.0°F2.8°C 79% 7.0 mph NE11.3 kmh NE 13.0 mph20.9 kmh 29.21 in989.2 mb 0.00 in0.0 mm 0.00 in0.0 mm 0.06 in1.5 mm
09:15 PM 43.3°F6.3°C 37.2°F2.9°C 79% 10.0 mph NE16.1 kmh NE -- 29.21 in989.2 mb 0.00 in0.0 mm 0.00 in0.0 mm 0.06 in1.5 mm
09:20 PM 43.4°F6.3°C 36.9°F2.7°C 78% 4.0 mph NE6.4 kmh NE -- 29.21 in989.2 mb 0.00 in0.0 mm 0.00 in0.0 mm 0.06 in1.5 mm
09:25 PM 43.4°F6.3°C 36.9°F2.7°C 78% 14.0 mph NE22.5 kmh NE -- 29.21 in989.2 mb 0.00 in0.0 mm 0.00 in0.0 mm 0.06 in1.5 mm
09:30 PM 43.5°F6.4°C 37.4°F3.0°C 79% 11.0 mph ENE17.7 kmh ENE -- 29.21 in989.2 mb 0.00 in0.0 mm 0.00 in0.0 mm 0.06 in1.5 mm
09:35 PM 43.5°F6.4°C 37.4°F3.0°C 79% 10.0 mph NE16.1 kmh NE 18.0 mph29.0 kmh 29.21 in989.2 mb 0.00 in0.0 mm 0.00 in0.0 mm 0.06 in1.5 mm
09:40 PM 43.5°F6.4°C 37.4°F3.0°C 79% 13.0 mph NE20.9 kmh NE -- 29.21 in989.2 mb 0.00 in0.0 mm 0.00 in0.0 mm 0.06 in1.5 mm
09:45 PM 43.6°F6.4°C 37.4°F3.0°C 79% 11.0 mph NE17.7 kmh NE -- 29.21 in989.2 mb 0.00 in0.0 mm 0.00 in0.0 mm 0.06 in1.5 mm
09:50 PM 43.6°F6.4°C 37.0°F2.8°C 78% 12.0 mph NE19.3 kmh NE -- 29.21 in989.2 mb 0.00 in0.0 mm 0.00 in0.0 mm 0.06 in1.5 mm
09:55 PM 43.6°F6.4°C 37.0°F2.8°C 78% 6.0 mph NE9.7 kmh NE -- 29.21 in989.2 mb 0.00 in0.0 mm 0.00 in0.0 mm 0.06 in1.5 mm
10:00 PM 43.6°F6.4°C 37.0°F2.8°C 78% 11.0 mph NE17.7 kmh NE 17.0 mph27.4 kmh 29.21 in989.2 mb 0.00 in0.0 mm 0.00 in0.0 mm 0.06 in1.5 mm
10:05 PM 43.7°F6.5°C 37.2°F2.9°C 78% 7.0 mph NNE11.3 kmh NNE -- 29.21 in989.2 mb 0.00 in0.0 mm 0.00 in0.0 mm 0.06 in1.5 mm
10:10 PM 43.8°F6.6°C 37.4°F3.0°C 78% 6.0 mph NE9.7 kmh NE -- 29.22 in989.5 mb 0.00 in0.0 mm 0.00 in0.0 mm 0.06 in1.5 mm
10:15 PM 43.8°F6.6°C 37.4°F3.0°C 78% 8.0 mph NE12.9 kmh NE -- 29.22 in989.5 mb 0.00 in0.0 mm 0.00 in0.0 mm 0.06 in1.5 mm
10:20 PM 43.9°F6.6°C 37.4°F3.0°C 78% 6.0 mph N9.7 kmh N -- 29.22 in989.5 mb 0.00 in0.0 mm 0.00 in0.0 mm 0.06 in1.5 mm
10:25 PM 43.8°F6.6°C 37.2°F2.9°C 77% 8.0 mph NE12.9 kmh NE 17.0 mph27.4 kmh 29.22 in989.5 mb 0.00 in0.0 mm 0.00 in0.0 mm 0.06 in1.5 mm
10:30 PM 43.9°F6.6°C 37.4°F3.0°C 78% 8.0 mph NE12.9 kmh NE -- 29.22 in989.5 mb 0.00 in0.0 mm 0.00 in0.0 mm 0.06 in1.5 mm
10:35 PM 43.8°F6.6°C 37.2°F2.9°C 77% 13.0 mph NE20.9 kmh NE -- 29.22 in989.5 mb 0.00 in0.0 mm 0.00 in0.0 mm 0.06 in1.5 mm
10:40 PM 43.9°F6.6°C 37.2°F2.9°C 77% 10.0 mph NE16.1 kmh NE -- 29.22 in989.5 mb 0.00 in0.0 mm 0.00 in0.0 mm 0.06 in1.5 mm
10:45 PM 43.8°F6.6°C 36.9°F2.7°C 76% 7.0 mph NE11.3 kmh NE -- 29.22 in989.5 mb 0.00 in0.0 mm 0.00 in0.0 mm 0.06 in1.5 mm
10:50 PM 43.8°F6.6°C 36.9°F2.7°C 76% 9.0 mph NE14.5 kmh NE 16.0 mph25.7 kmh 29.22 in989.5 mb 0.00 in0.0 mm 0.00 in0.0 mm 0.06 in1.5 mm
10:55 PM 43.9°F6.6°C 36.9°F2.7°C 76% 10.0 mph NNE16.1 kmh NNE -- 29.22 in989.5 mb 0.00 in0.0 mm 0.00 in0.0 mm 0.06 in1.5 mm
11:00 PM 43.8°F6.6°C 36.5°F2.5°C 75% 9.0 mph NE14.5 kmh NE -- 29.22 in989.5 mb 0.00 in0.0 mm 0.00 in0.0 mm 0.05 in1.3 mm
11:05 PM 44.0°F6.7°C 36.7°F2.6°C 75% 13.0 mph NE20.9 kmh NE -- 29.22 in989.5 mb 0.00 in0.0 mm 0.00 in0.0 mm 0.05 in1.3 mm
11:10 PM 43.8°F6.6°C 36.5°F2.5°C 75% 9.0 mph NE14.5 kmh NE -- 29.22 in989.5 mb 0.00 in0.0 mm 0.00 in0.0 mm 0.05 in1.3 mm
11:15 PM 43.7°F6.5°C 36.3°F2.4°C 75% 8.0 mph NE12.9 kmh NE 14.0 mph22.5 kmh 29.22 in989.5 mb 0.00 in0.0 mm 0.00 in0.0 mm 0.05 in1.3 mm
11:20 PM 43.7°F6.5°C 36.7°F2.6°C 76% 10.0 mph N16.1 kmh N -- 29.22 in989.5 mb 0.00 in0.0 mm 0.00 in0.0 mm 0.05 in1.3 mm
11:25 PM 43.7°F6.5°C 36.3°F2.4°C 75% 5.0 mph NE8.0 kmh NE -- 29.22 in989.5 mb 0.00 in0.0 mm 0.00 in0.0 mm 0.05 in1.3 mm
11:30 PM 43.7°F6.5°C 36.3°F2.4°C 75% 6.0 mph NE9.7 kmh NE -- 29.22 in989.5 mb 0.00 in0.0 mm 0.00 in0.0 mm 0.05 in1.3 mm
11:35 PM 43.7°F6.5°C 36.0°F2.2°C 74% 10.0 mph NNE16.1 kmh NNE -- 29.22 in989.5 mb 0.00 in0.0 mm 0.00 in0.0 mm 0.05 in1.3 mm
11:40 PM 43.7°F6.5°C 36.0°F2.2°C 74% 4.0 mph NE6.4 kmh NE 14.0 mph22.5 kmh 29.22 in989.5 mb 0.00 in0.0 mm 0.00 in0.0 mm 0.05 in1.3 mm
11:45 PM 43.6°F6.4°C 36.1°F2.3°C 75% 6.0 mph NE9.7 kmh NE -- 29.22 in989.5 mb 0.00 in0.0 mm 0.00 in0.0 mm 0.05 in1.3 mm
11:50 PM 43.6°F6.4°C 36.1°F2.3°C 75% 6.0 mph NE9.7 kmh NE -- 29.22 in989.5 mb 0.00 in0.0 mm 0.00 in0.0 mm 0.05 in1.3 mm
11:55 PM 43.7°F6.5°C 36.0°F2.2°C 74% 5.0 mph NE8.0 kmh NE -- 29.22 in989.5 mb 0.00 in0.0 mm 0.00 in0.0 mm 0.05 in1.3 mm